Time;durP1;ratioP1;P1;durP2;ratioP2;P2;SDS_P1;SDS_P2;PMS_P1;PMS_P2;Temp;Humidity;BMP_temperature;BMP_pressure;BME280_temperature;BME280_humidity;BME280_pressure;Samples;Min_cycle;Max_cycle;Signal;HPM_P1;HPM_P2
2022/11/09 00:00:01;;;;;;;4.50;1.13;;;;;;;9.80;54.65;100382.63;5017717;28;20089;-71
2022/11/09 00:02:27;;;;;;;2.47;1.02;;;;;;;9.78;54.47;100375.75;5023205;28;20042;-70
2022/11/09 00:04:52;;;;;;;2.17;0.60;;;;;;;9.78;54.24;100381.81;4988953;28;20130;-69
2022/11/09 00:07:18;;;;;;;8.23;0.50;;;;;;;9.69;54.15;100383.97;5022766;28;20711;-70
2022/11/09 00:09:43;;;;;;;2.15;0.60;;;;;;;9.57;54.31;100387.97;5005707;28;20526;-70
2022/11/09 00:12:08;;;;;;;3.15;1.35;;;;;;;9.51;54.79;100376.03;5006505;28;20055;-69
2022/11/09 00:14:35;;;;;;;2.17;0.50;;;;;;;9.56;55.38;100373.22;5006578;28;20045;-69
2022/11/09 00:17:01;;;;;;;3.15;1.27;;;;;;;9.64;55.19;100365.91;5010312;28;20421;-70
2022/11/09 00:19:26;;;;;;;5.18;0.77;;;;;;;9.68;54.91;100364.88;5006987;28;20305;-69
2022/11/09 00:21:52;;;;;;;3.17;0.98;;;;;;;9.62;54.50;100362.53;5008089;28;20443;-70
2022/11/09 00:24:17;;;;;;;8.20;1.75;;;;;;;9.55;54.90;100361.94;5019924;28;20133;-73
2022/11/09 00:26:43;;;;;;;2.40;1.00;;;;;;;9.56;54.96;100360.19;5006198;28;20099;-73
2022/11/09 00:29:08;;;;;;;2.78;0.82;;;;;;;9.58;54.60;100366.19;5007005;28;20046;-72
2022/11/09 00:31:34;;;;;;;6.15;0.60;;;;;;;9.71;54.84;100359.50;5006542;28;20087;-72
2022/11/09 00:34:00;;;;;;;2.67;0.73;;;;;;;9.84;54.44;100364.22;5019187;28;20038;-71
2022/11/09 00:36:27;;;;;;;3.63;1.13;;;;;;;9.83;54.64;100357.28;5007125;28;20088;-70
2022/11/09 00:38:56;;;;;;;2.13;0.40;;;;;;;9.95;54.26;100351.53;5021419;28;20056;-72
2022/11/09 00:41:22;;;;;;;6.03;0.90;;;;;;;9.96;53.95;100348.00;5019769;28;20105;-70
2022/11/09 00:43:49;;;;;;;9.38;0.90;;;;;;;9.99;53.61;100347.84;5020345;28;20030;-71
2022/11/09 00:46:15;;;;;;;2.53;0.47;;;;;;;9.96;53.77;100345.38;5002375;28;20056;-70
2022/11/09 00:48:42;;;;;;;5.25;0.80;;;;;;;9.90;54.15;100345.66;5018564;28;20041;-70
2022/11/09 00:51:08;;;;;;;7.70;1.00;;;;;;;10.06;53.14;100348.41;5006093;28;20042;-72
2022/11/09 00:53:34;;;;;;;2.38;0.60;;;;;;;10.08;53.45;100342.22;5004077;28;20045;-70
2022/11/09 00:56:06;;;;;;;2.15;0.60;;;;;;;10.13;53.48;100340.22;5007771;28;20033;-71
2022/11/09 00:58:35;;;;;;;1.52;0.65;;;;;;;10.16;53.24;100334.84;5022666;28;20131;-70
2022/11/09 01:01:11;;;;;;;5.43;0.93;;;;;;;10.26;53.25;100340.50;5017452;28;20017;-70
2022/11/09 01:03:40;;;;;;;3.78;0.63;;;;;;;10.32;53.08;100339.34;5023387;28;20036;-71
2022/11/09 01:06:06;;;;;;;2.10;0.60;;;;;;;10.38;53.26;100339.06;5025595;28;20108;-71
2022/11/09 01:08:33;;;;;;;5.35;0.95;;;;;;;10.39;53.03;100339.00;5023933;28;20379;-71
2022/11/09 01:11:05;;;;;;;3.00;0.60;;;;;;;10.22;53.49;100329.34;5024618;28;20137;-71
2022/11/09 01:13:30;;;;;;;4.45;0.85;;;;;;;10.34;52.69;100332.31;5023433;28;20032;-70
2022/11/09 01:15:56;;;;;;;2.38;0.70;;;;;;;10.33;52.87;100333.22;5011411;28;20456;-69
2022/11/09 01:18:21;;;;;;;3.78;0.60;;;;;;;10.30;53.03;100352.47;4999054;28;20037;-72
2022/11/09 01:20:48;;;;;;;3.50;0.65;;;;;;;10.22;53.23;100350.25;5009536;28;20505;-69
2022/11/09 01:23:16;;;;;;;12.90;1.33;;;;;;;9.89;54.11;100351.81;5007935;28;20130;-70
2022/11/09 01:25:42;;;;;;;5.80;0.60;;;;;;;10.10;53.46;100355.19;5021230;28;20144;-71
2022/11/09 01:28:09;;;;;;;2.90;0.70;;;;;;;9.82;54.77;100345.19;5007934;28;20483;-70
2022/11/09 01:30:40;;;;;;;1.05;0.47;;;;;;;9.92;54.04;100349.03;5007000;28;20056;-70
2022/11/09 01:33:08;;;;;;;3.03;0.87;;;;;;;10.10;53.44;100345.59;5013448;28;20038;-72
2022/11/09 01:35:38;;;;;;;4.38;0.90;;;;;;;9.78;54.65;100355.69;4995479;28;20288;-71
2022/11/09 01:38:05;;;;;;;6.25;0.80;;;;;;;9.93;54.18;100350.75;5011317;28;20036;-72
2022/11/09 01:40:33;;;;;;;0.95;0.47;;;;;;;10.12;53.58;100350.75;5021358;28;20569;-73
2022/11/09 01:43:14;;;;;;;3.85;0.63;;;;;;;10.07;53.93;100350.94;5024166;28;20026;-75
2022/11/09 01:45:41;;;;;;;4.13;0.80;;;;;;;10.47;52.64;100348.25;5023707;28;20041;-73
2022/11/09 01:48:16;;;;;;;3.72;0.90;;;;;;;10.34;53.37;100351.41;5009127;28;20026;-73
2022/11/09 01:50:47;;;;;;;6.85;1.30;;;;;;;10.43;52.67;100347.53;5006966;28;20387;-74
2022/11/09 01:53:19;;;;;;;2.37;0.83;;;;;;;10.13;53.79;100349.84;5021983;28;20025;-70
2022/11/09 01:55:49;;;;;;;2.42;0.82;;;;;;;10.53;52.65;100345.34;5007734;28;20234;-70
2022/11/09 01:58:22;;;;;;;1.58;0.50;;;;;;;10.55;52.46;100344.34;5011998;28;20049;-69
2022/11/09 02:00:49;;;;;;;7.82;1.02;;;;;;;10.29;53.60;100340.34;5022065;28;20505;-70
2022/11/09 02:03:39;;;;;;;2.13;0.70;;;;;;;10.38;53.34;100339.06;5014645;28;20037;-71
2022/11/09 02:06:07;;;;;;;4.03;0.90;;;;;;;10.56;52.41;100343.41;5005689;28;20037;-71
2022/11/09 02:08:33;;;;;;;4.50;1.00;;;;;;;10.37;52.76;100342.59;5006466;28;20053;-71
2022/11/09 02:11:19;;;;;;;5.53;0.75;;;;;;;10.22;53.40;100345.03;5008311;28;20528;-72
2022/11/09 02:13:55;;;;;;;2.95;0.85;;;;;;;10.29;52.54;100340.34;5005518;28;20042;-71
2022/11/09 02:16:21;;;;;;;2.33;0.73;;;;;;;10.24;52.45;100347.56;5021772;28;20065;-71
2022/11/09 02:18:55;;;;;;;5.28;1.05;;;;;;;9.99;53.55;100337.41;5023139;28;20060;-71
2022/11/09 02:21:25;;;;;;;10.38;1.33;;;;;;;10.05;53.53;100347.56;5022151;28;20494;-70
2022/11/09 02:23:52;;;;;;;2.78;0.80;;;;;;;9.88;53.81;100342.25;5005459;28;20414;-70
2022/11/09 02:26:37;;;;;;;4.60;1.17;;;;;;;9.94;53.68;100340.22;5009569;28;20036;-71
2022/11/09 02:29:07;;;;;;;7.15;1.58;;;;;;;9.98;53.44;100333.94;5004602;28;20132;-71
2022/11/09 02:31:37;;;;;;;3.08;0.45;;;;;;;9.89;54.23;100336.13;5010592;28;20060;-71
2022/11/09 02:34:09;;;;;;;3.60;0.88;;;;;;;9.89;54.07;100343.97;5019596;28;20483;-71
2022/11/09 02:36:35;;;;;;;3.40;0.88;;;;;;;9.90;53.58;100343.03;5015319;28;20049;-70
2022/11/09 02:39:03;;;;;;;4.18;0.85;;;;;;;9.85;53.56;100339.81;5006522;28;20033;-71
2022/11/09 02:41:30;;;;;;;2.85;1.48;;;;;;;9.82;53.78;100345.19;5014891;28;20033;-72
2022/11/09 02:43:59;;;;;;;3.25;0.93;;;;;;;9.68;53.65;100338.78;5020962;28;20119;-70
2022/11/09 02:46:30;;;;;;;4.13;0.77;;;;;;;9.52;54.70;100335.13;5015704;28;20029;-69
2022/11/09 02:48:57;;;;;;;;;;;;;;;9.55;54.38;100330.66;5020505;28;20497;-72
2022/11/09 02:51:22;;;;;;;5.13;0.95;;;;;;;9.54;54.43;100335.91;5022258;28;20359;-71
2022/11/09 02:53:48;;;;;;;3.05;0.95;;;;;;;9.47;54.60;100334.50;5003605;28;20132;-71
2022/11/09 02:56:13;;;;;;;2.95;0.77;;;;;;;9.46;55.04;100335.44;5014884;28;20052;-72
2022/11/09 02:58:39;;;;;;;5.78;0.95;;;;;;;9.40;55.23;100334.75;5017114;28;20646;-72
2022/11/09 03:01:05;;;;;;;5.13;1.10;;;;;;;9.45;55.26;100336.31;5014577;28;20403;-71
2022/11/09 03:03:30;;;;;;;3.30;0.60;;;;;;;9.55;54.69;100337.63;5004160;28;20034;-70
2022/11/09 03:05:56;;;;;;;2.75;0.82;;;;;;;9.49;54.91;100332.69;5007052;28;20045;-71
2022/11/09 03:08:22;;;;;;;5.85;0.90;;;;;;;9.09;56.77;100337.84;5021992;28;20076;-75
2022/11/09 03:10:50;;;;;;;3.92;0.52;;;;;;;9.56;54.68;100336.69;5021992;28;20088;-75
2022/11/09 03:13:15;;;;;;;7.78;1.20;;;;;;;9.62;54.65;100339.03;5013797;28;20026;-74
2022/11/09 03:15:41;;;;;;;6.45;0.88;;;;;;;9.66;54.31;100337.16;5005396;28;20041;-74
2022/11/09 03:18:07;;;;;;;4.15;0.80;;;;;;;9.56;54.26;100331.47;5021293;28;20026;-73
2022/11/09 03:20:32;;;;;;;2.72;0.63;;;;;;;9.47;54.55;100334.50;5004884;28;20038;-73
2022/11/09 03:22:59;;;;;;;8.43;0.80;;;;;;;9.39;54.84;100333.09;4997690;28;20034;-69
2022/11/09 03:25:26;;;;;;;2.00;0.57;;;;;;;9.45;55.01;100331.13;5020239;28;20050;-70
2022/11/09 03:28:04;;;;;;;4.28;0.75;;;;;;;9.42;54.80;100331.25;5006809;28;20060;-69
2022/11/09 03:30:30;;;;;;;4.35;0.70;;;;;;;9.38;55.11;100331.38;5019298;28;20046;-69
2022/11/09 03:33:04;;;;;;;1.17;0.50;;;;;;;9.32;55.22;100329.06;5020009;28;20036;-70
2022/11/09 03:35:30;;;;;;;1.27;0.40;;;;;;;9.38;55.08;100336.59;5006411;28;20668;-70
2022/11/09 03:37:55;;;;;;;2.13;0.32;;;;;;;9.31;55.21;100331.72;5022795;28;20040;-70
2022/11/09 03:40:23;;;;;;;3.78;0.55;;;;;;;9.32;55.09;100336.88;5020569;28;20041;-70
2022/11/09 03:42:50;;;;;;;1.80;0.57;;;;;;;9.27;54.93;100344.03;5020983;28;20052;-70
2022/11/09 03:45:15;;;;;;;1.10;0.50;;;;;;;9.16;55.28;100338.44;5005624;28;20486;-70
2022/11/09 03:47:46;;;;;;;6.63;0.70;;;;;;;9.05;56.09;100338.03;5019544;28;20471;-70
2022/11/09 03:50:14;;;;;;;3.65;0.80;;;;;;;9.19;55.81;100333.09;5005570;28;20045;-70
2022/11/09 03:52:39;;;;;;;7.88;1.15;;;;;;;9.24;55.48;100338.97;5009936;28;20037;-70
2022/11/09 03:55:06;;;;;;;4.35;0.60;;;;;;;9.21;55.68;100336.50;5017720;28;20046;-70
2022/11/09 03:57:31;;;;;;;4.10;1.13;;;;;;;9.12;56.08;100347.28;5005870;28;20376;-70
2022/11/09 03:59:57;;;;;;;2.70;0.80;;;;;;;9.14;56.30;100353.28;5004531;28;20173;-70
2022/11/09 04:02:22;;;;;;;6.80;0.80;;;;;;;8.96;57.18;100363.59;5005961;28;20580;-70
2022/11/09 04:04:48;;;;;;;4.20;0.55;;;;;;;9.32;55.53;100367.31;5018619;28;20092;-70
2022/11/09 04:07:14;;;;;;;5.90;0.80;;;;;;;9.29;55.89;100368.28;5006080;28;20520;-70
2022/11/09 04:09:39;;;;;;;7.55;1.30;;;;;;;9.19;56.23;100357.41;5018258;28;20038;-70
2022/11/09 04:12:05;;;;;;;4.50;0.55;;;;;;;9.43;55.72;100348.59;5008343;28;20030;-70
2022/11/09 04:14:30;;;;;;;4.35;0.60;;;;;;;9.33;55.99;100354.22;5003286;28;20099;-72
2022/11/09 04:16:56;;;;;;;7.03;0.60;;;;;;;9.35;55.58;100352.38;5006821;28;20063;-73
2022/11/09 04:19:22;;;;;;;3.85;0.52;;;;;;;9.66;54.42;100345.81;5004588;28;20033;-72
2022/11/09 04:21:47;;;;;;;9.45;1.25;;;;;;;9.31;55.60;100348.22;5018862;28;20734;-73
2022/11/09 04:24:13;;;;;;;3.00;0.47;;;;;;;9.66;54.30;100356.25;5012471;28;20045;-73
2022/11/09 04:26:38;;;;;;;4.53;0.70;;;;;;;9.43;55.03;100356.41;5010986;28;20076;-73
2022/11/09 04:29:04;;;;;;;5.70;0.95;;;;;;;8.84;56.89;100361.47;5019503;28;20546;-71
2022/11/09 04:31:29;;;;;;;3.35;0.85;;;;;;;9.25;56.01;100358.91;5008088;28;20041;-72
2022/11/09 04:33:55;;;;;;;2.83;0.40;;;;;;;9.39;55.27;100373.97;5008157;28;20522;-71
2022/11/09 04:36:20;;;;;;;4.15;0.80;;;;;;;9.39;55.14;100359.16;5009803;28;20037;-73
2022/11/09 04:38:46;;;;;;;7.53;0.90;;;;;;;9.31;55.22;100361.25;5010013;28;20060;-76
2022/11/09 04:41:12;;;;;;;2.20;0.38;;;;;;;9.09;56.05;100365.69;5024736;28;20045;-75
2022/11/09 04:43:37;;;;;;;5.88;0.50;;;;;;;9.22;55.51;100369.47;5015545;28;20407;-76
2022/11/09 04:46:03;;;;;;;4.88;0.50;;;;;;;9.59;54.37;100363.50;5011839;28;20523;-76
2022/11/09 04:48:29;;;;;;;4.60;0.47;;;;;;;9.46;54.57;100364.13;5009319;28;20083;-76
2022/11/09 04:51:06;;;;;;;5.63;0.40;;;;;;;9.49;54.31;100353.53;5024533;28;20410;-76
2022/11/09 04:53:32;;;;;;;5.07;0.40;;;;;;;9.47;54.43;100358.81;5006156;28;20045;-75
2022/11/09 04:55:59;;;;;;;2.58;0.40;;;;;;;9.33;54.92;100359.44;5012849;28;20380;-77
2022/11/09 04:58:27;;;;;;;1.95;0.47;;;;;;;9.48;54.06;100362.31;5009619;28;20038;-76
2022/11/09 05:00:53;;;;;;;6.13;0.80;;;;;;;9.28;54.49;100365.75;5009869;28;20044;-71
2022/11/09 05:03:19;;;;;;;5.22;0.60;;;;;;;9.03;55.23;100361.59;5008512;28;20457;-71
2022/11/09 05:05:44;;;;;;;5.80;0.82;;;;;;;9.28;54.42;100366.59;5021909;28;20049;-73
2022/11/09 05:08:10;;;;;;;4.45;0.60;;;;;;;9.00;55.55;100368.66;5010260;28;20494;-73
2022/11/09 05:10:36;;;;;;;3.15;0.45;;;;;;;9.29;54.40;100367.44;5008173;28;20041;-72
2022/11/09 05:13:06;;;;;;;5.72;0.68;;;;;;;9.28;54.24;100373.59;5014340;28;20304;-74
2022/11/09 05:15:33;;;;;;;6.97;0.63;;;;;;;9.37;54.33;100371.44;5005811;28;20049;-72
2022/11/09 05:18:00;;;;;;;6.57;0.80;;;;;;;9.75;52.72;100378.50;5017187;28;20030;-71
2022/11/09 05:20:26;;;;;;;7.47;0.93;;;;;;;9.09;54.76;100369.13;5006499;28;20537;-69
2022/11/09 05:25:35;;;;;;;3.08;0.63;;;;;;;9.56;53.40;100379.28;5004835;28;20460;-67
2022/11/09 05:28:01;;;;;;;11.45;0.90;;;;;;;9.10;54.55;100372.59;5022888;28;20426;-66
2022/11/09 05:30:27;;;;;;;2.85;0.60;;;;;;;9.40;54.16;100375.66;5019210;28;20053;-67
2022/11/09 05:32:52;;;;;;;5.15;0.95;;;;;;;9.39;54.01;100374.81;5008139;28;20034;-67
2022/11/09 05:35:18;;;;;;;9.88;0.70;;;;;;;9.27;54.36;100370.09;5013599;28;20042;-68
2022/11/09 05:37:47;;;;;;;6.97;0.70;;;;;;;9.28;54.50;100377.03;5007616;28;20034;-67
2022/11/09 05:40:13;;;;;;;2.58;0.32;;;;;;;9.32;54.22;100399.47;5008442;28;20049;-67
2022/11/09 05:42:40;;;;;;;3.00;0.82;;;;;;;9.44;54.02;100384.22;5019759;28;20522;-66
2022/11/09 05:45:10;;;;;;;2.05;0.40;;;;;;;8.96;55.44;100392.28;5009503;28;20052;-69
2022/11/09 05:47:37;;;;;;;3.38;0.70;;;;;;;9.33;54.42;100395.94;5008259;28;20504;-71
2022/11/09 05:50:04;;;;;;;7.32;0.65;;;;;;;9.51;53.78;100398.69;5007345;28;20071;-71
2022/11/09 05:52:30;;;;;;;3.30;0.82;;;;;;;9.31;54.36;100395.16;5020967;28;20029;-72
2022/11/09 05:54:56;;;;;;;8.25;0.90;;;;;;;9.29;54.69;100394.38;5020901;28;20050;-72
2022/11/09 05:57:22;;;;;;;9.50;0.77;;;;;;;9.60;53.60;100387.84;5005980;28;20112;-70
2022/11/09 05:59:47;;;;;;;2.25;0.88;;;;;;;9.09;55.25;100396.97;5007095;28;20045;-72
2022/11/09 06:02:12;;;;;;;2.72;0.60;;;;;;;9.09;55.39;100407.38;5022317;28;20045;-74
2022/11/09 06:04:38;;;;;;;3.60;0.50;;;;;;;9.20;55.32;100399.97;5013127;28;20038;-69
2022/11/09 06:07:03;;;;;;;5.00;0.45;;;;;;;9.56;54.04;100399.31;5021307;28;20498;-71
2022/11/09 06:09:29;;;;;;;3.40;1.00;;;;;;;8.99;55.94;100412.16;5007931;28;20436;-71
2022/11/09 06:11:54;;;;;;;6.40;0.60;;;;;;;9.21;55.47;100403.41;5008092;28;20156;-69
2022/11/09 06:14:20;;;;;;;5.20;1.58;;;;;;;9.15;55.38;100421.03;5008410;28;20069;-70
2022/11/09 06:16:45;;;;;;;12.45;0.90;;;;;;;9.04;55.93;100409.34;5008323;28;20037;-72
2022/11/09 06:19:10;;;;;;;5.45;0.50;;;;;;;9.52;54.36;100411.66;5006415;28;20038;-66
2022/11/09 06:21:36;;;;;;;8.60;0.93;;;;;;;9.14;55.56;100415.88;5009537;28;20071;-73
2022/11/09 06:24:01;;;;;;;5.93;1.17;;;;;;;9.29;55.16;100415.22;5014162;28;20045;-74
2022/11/09 06:26:27;;;;;;;4.22;0.88;;;;;;;9.43;54.74;100427.69;5011397;28;20038;-72
2022/11/09 06:28:52;;;;;;;7.20;1.00;;;;;;;9.42;54.91;100426.00;5005620;28;20107;-73
2022/11/09 06:31:19;;;;;;;9.80;1.75;;;;;;;8.76;56.50;100426.94;5006345;28;20041;-76
2022/11/09 06:33:45;;;;;;;5.15;0.90;;;;;;;8.82;56.76;100431.06;5007555;28;20045;-74
2022/11/09 06:36:11;;;;;;;6.18;0.60;;;;;;;8.97;56.15;100438.25;5007652;28;20037;-74
2022/11/09 06:38:37;;;;;;;5.68;0.50;;;;;;;9.08;55.76;100432.63;5022513;28;20140;-73
2022/11/09 06:41:02;;;;;;;5.38;0.75;;;;;;;9.05;56.09;100442.31;5014972;28;20125;-74
2022/11/09 06:43:28;;;;;;;8.95;0.60;;;;;;;8.93;56.52;100436.69;5008807;28;20119;-73
2022/11/09 06:45:54;;;;;;;8.43;0.98;;;;;;;9.40;54.69;100436.50;5006377;28;20037;-71
2022/11/09 06:48:20;;;;;;;8.23;0.70;;;;;;;9.59;54.31;100446.16;5008355;28;20472;-74
2022/11/09 06:50:46;;;;;;;3.55;0.98;;;;;;;9.26;55.37;100454.50;5018339;28;20059;-74
2022/11/09 06:53:13;;;;;;;3.72;0.93;;;;;;;8.85;56.80;100450.94;5025176;28;20029;-72
2022/11/09 06:55:39;;;;;;;7.35;0.52;;;;;;;8.65;57.20;100454.28;5021693;28;20048;-73
2022/11/09 06:58:10;;;;;;;8.07;0.52;;;;;;;8.80;56.87;100468.50;5029258;28;20052;-72
2022/11/09 07:00:36;;;;;;;8.97;1.03;;;;;;;9.27;55.37;100476.19;5026239;28;20032;-73
2022/11/09 07:03:02;;;;;;;5.95;1.05;;;;;;;8.80;56.65;100461.53;5027695;28;20521;-73
2022/11/09 07:05:27;;;;;;;4.43;0.93;;;;;;;9.44;54.65;100465.06;5011128;28;20111;-74
2022/11/09 07:07:53;;;;;;;7.05;0.95;;;;;;;8.97;55.92;100471.31;5024629;28;20032;-73
2022/11/09 07:10:19;;;;;;;5.28;0.55;;;;;;;8.87;56.28;100470.81;5012593;28;20498;-73
2022/11/09 07:12:44;;;;;;;3.10;0.80;;;;;;;9.30;55.01;100473.47;5008309;28;20040;-74
2022/11/09 07:15:10;;;;;;;2.85;0.30;;;;;;;8.93;56.30;100469.72;5026883;28;20122;-74
2022/11/09 07:17:38;;;;;;;4.03;0.77;;;;;;;9.26;55.22;100479.72;5017312;28;20609;-76
2022/11/09 07:20:06;;;;;;;4.57;0.90;;;;;;;9.31;55.10;100481.22;5026067;28;20128;-72
2022/11/09 07:22:33;;;;;;;4.97;0.50;;;;;;;8.83;56.48;100486.63;5012096;28;20254;-69
2022/11/09 07:24:59;;;;;;;5.47;0.50;;;;;;;9.35;54.99;100476.72;5008706;28;20103;-71
2022/11/09 07:27:25;;;;;;;8.15;0.93;;;;;;;9.49;54.67;100474.38;5026049;28;20041;-70
2022/11/09 07:29:50;;;;;;;1.20;0.40;;;;;;;8.97;55.85;100479.13;5024394;28;20135;-70
2022/11/09 07:32:16;;;;;;;6.40;0.50;;;;;;;9.21;55.49;100479.91;5022659;28;20021;-70
2022/11/09 07:34:41;;;;;;;8.32;0.80;;;;;;;9.78;54.11;100475.75;5022691;28;20399;-72
2022/11/09 07:37:07;;;;;;;3.80;0.98;;;;;;;9.32;55.32;100482.06;5025009;28;20048;-73
2022/11/09 07:39:33;;;;;;;3.25;0.98;;;;;;;9.60;54.57;100468.72;5026250;28;20143;-72
2022/11/09 07:42:00;;;;;;;4.88;0.82;;;;;;;10.29;52.98;100485.78;5027938;28;20072;-74
2022/11/09 07:44:31;;;;;;;3.80;0.80;;;;;;;10.21;52.71;100479.16;5006315;28;20037;-73
2022/11/09 07:46:57;;;;;;;5.43;0.70;;;;;;;10.34;52.53;100479.41;5026038;28;20048;-72
2022/11/09 07:49:22;;;;;;;4.30;0.60;;;;;;;10.99;51.27;100485.13;5025888;28;20182;-71
2022/11/09 07:51:48;;;;;;;5.05;0.57;;;;;;;11.20;50.67;100485.03;5011613;28;20501;-73
2022/11/09 07:54:13;;;;;;;9.73;1.27;;;;;;;11.41;49.35;100483.13;5009450;28;20445;-72
2022/11/09 07:56:39;;;;;;;5.30;0.52;;;;;;;11.81;48.11;100486.38;5025906;28;20025;-72
2022/11/09 07:59:05;;;;;;;3.28;0.43;;;;;;;12.56;46.10;100485.03;5024313;28;20033;-73
2022/11/09 08:01:30;;;;;;;7.32;0.40;;;;;;;11.57;48.25;100496.28;5024860;28;20564;-72
2022/11/09 08:03:56;;;;;;;10.43;1.33;;;;;;;12.62;45.91;100487.31;5020938;28;20048;-72
2022/11/09 08:06:26;;;;;;;3.95;0.47;;;;;;;12.98;45.48;100490.63;5008725;28;20060;-72
2022/11/09 08:08:56;;;;;;;4.20;0.40;;;;;;;12.79;45.38;100503.94;5009995;28;20455;-72
2022/11/09 08:11:23;;;;;;;2.45;0.80;;;;;;;12.73;45.74;100494.63;5009485;28;20420;-71
2022/11/09 08:13:49;;;;;;;3.92;0.85;;;;;;;12.68;45.68;100500.09;5022252;28;20523;-72
2022/11/09 08:16:15;;;;;;;3.60;0.60;;;;;;;12.08;47.09;100503.28;5004436;28;20041;-73
2022/11/09 08:18:40;;;;;;;3.47;0.57;;;;;;;11.81;47.02;100495.09;5016005;28;20104;-71
2022/11/09 08:21:06;;;;;;;5.75;0.95;;;;;;;12.24;46.68;100492.00;5025804;28;20505;-71
2022/11/09 08:23:31;;;;;;;4.40;0.50;;;;;;;12.98;45.53;100495.88;5021903;28;20459;-71
2022/11/09 08:26:01;;;;;;;6.20;0.68;;;;;;;12.66;45.69;100503.72;5009448;28;20024;-72
2022/11/09 08:28:27;;;;;;;5.30;0.52;;;;;;;12.91;44.87;100490.13;5024341;28;20480;-72
2022/11/09 08:31:01;;;;;;;6.15;0.98;;;;;;;11.74;47.32;100498.91;5024963;28;20045;-72
2022/11/09 08:33:29;;;;;;;3.92;0.50;;;;;;;10.74;49.73;100502.88;5021988;28;20132;-72
2022/11/09 08:35:54;;;;;;;6.30;0.93;;;;;;;10.61;50.40;100508.66;5009198;28;20119;-71
2022/11/09 08:38:21;;;;;;;2.03;0.63;;;;;;;11.26;48.98;100505.66;5023918;28;20116;-71
2022/11/09 08:40:46;;;;;;;5.75;0.50;;;;;;;12.30;46.00;100510.03;5002587;28;20131;-72
2022/11/09 08:43:12;;;;;;;6.03;0.50;;;;;;;12.60;46.41;100511.91;5022901;28;20035;-71
2022/11/09 08:45:39;;;;;;;2.30;0.55;;;;;;;12.56;45.25;100515.63;5021792;28;20037;-72
2022/11/09 08:48:06;;;;;;;4.55;0.60;;;;;;;11.25;48.33;100522.28;5014749;28;20596;-73
2022/11/09 08:50:34;;;;;;;7.20;1.15;;;;;;;12.20;46.64;100522.78;5024716;28;20056;-71
2022/11/09 08:53:01;;;;;;;4.05;0.32;;;;;;;11.43;48.14;100516.16;5014974;28;20116;-71
2022/11/09 08:55:27;;;;;;;3.42;0.57;;;;;;;12.10;46.66;100518.94;5024268;28;20171;-71
2022/11/09 08:57:54;;;;;;;4.18;1.08;;;;;;;11.97;46.36;100512.63;5019497;28;20056;-71
2022/11/09 09:00:20;;;;;;;4.72;0.60;;;;;;;12.21;47.33;100515.75;5026064;28;20089;-71
2022/11/09 09:02:45;;;;;;;7.53;0.60;;;;;;;12.25;47.24;100506.81;5024148;28;20061;-72
2022/11/09 09:05:11;;;;;;;7.22;0.45;;;;;;;12.45;46.25;100509.19;5020384;28;20069;-71
2022/11/09 09:07:36;;;;;;;3.70;0.77;;;;;;;12.36;46.62;100520.19;5025682;28;20033;-73
2022/11/09 09:10:03;;;;;;;5.60;0.82;;;;;;;11.94;47.72;100528.50;5022427;28;20056;-72
2022/11/09 09:12:29;;;;;;;6.43;1.70;;;;;;;12.40;46.49;100523.47;5007336;28;20433;-74
2022/11/09 09:14:54;;;;;;;4.95;0.52;;;;;;;13.00;45.05;100515.84;5021517;28;20048;-72
2022/11/09 09:17:20;;;;;;;3.15;0.50;;;;;;;12.02;46.84;100518.47;5021171;28;20037;-71
2022/11/09 09:19:45;;;;;;;9.52;1.38;;;;;;;12.42;46.16;100526.84;5014796;28;20591;-71
2022/11/09 09:22:11;;;;;;;2.78;0.80;;;;;;;12.08;46.85;100518.16;5014284;28;20506;-72
2022/11/09 09:24:36;;;;;;;1.95;0.40;;;;;;;12.30;46.53;100525.75;5022077;28;20068;-71
2022/11/09 09:27:02;;;;;;;6.53;0.73;;;;;;;12.96;45.47;100534.47;5025864;28;20056;-71
2022/11/09 09:29:27;;;;;;;4.35;0.70;;;;;;;13.25;44.22;100530.19;5023551;28;20041;-72
2022/11/09 09:31:53;;;;;;;4.93;0.63;;;;;;;13.30;44.32;100530.81;5023739;28;20131;-71
2022/11/09 09:34:20;;;;;;;6.55;0.85;;;;;;;13.83;43.09;100531.25;5010183;28;20696;-71
2022/11/09 09:36:46;;;;;;;3.58;0.50;;;;;;;13.15;43.49;100531.66;5021888;28;20574;-71
2022/11/09 09:39:11;;;;;;;6.65;0.45;;;;;;;12.76;45.39;100527.69;5024536;28;20064;-72
2022/11/09 09:41:44;;;;;;;6.68;1.08;;;;;;;12.82;44.49;100536.06;5021422;28;20402;-72
2022/11/09 09:44:22;;;;;;;5.57;1.15;;;;;;;13.20;44.39;100538.34;5025295;28;20406;-72
2022/11/09 09:47:12;;;;;;;6.57;0.70;;;;;;;13.04;44.74;100546.22;5024610;28;20071;-71
2022/11/09 09:49:46;;;;;;;9.80;0.77;;;;;;;13.77;43.61;100537.75;5021851;28;20033;-72
2022/11/09 09:52:36;;;;;;;3.75;0.30;;;;;;;12.34;45.71;100542.16;5010005;28;20120;-70
2022/11/09 09:55:11;;;;;;;8.50;0.95;;;;;;;12.84;45.61;100556.97;5024337;28;20067;-71
2022/11/09 09:57:36;;;;;;;7.25;0.75;;;;;;;12.45;45.69;100555.53;5023931;28;20037;-71
2022/11/09 10:00:07;;;;;;;6.63;0.93;;;;;;;12.96;45.46;100556.31;5022537;28;20045;-74
2022/11/09 10:02:37;;;;;;;11.18;0.82;;;;;;;12.25;46.07;100554.81;5024664;28;20405;-71
2022/11/09 10:05:10;;;;;;;12.50;0.57;;;;;;;13.41;44.21;100548.56;5008493;28;20046;-71
2022/11/09 10:07:48;;;;;;;1.90;0.32;;;;;;;12.66;45.33;100559.63;5024000;28;20487;-70
2022/11/09 10:10:38;;;;;;;8.13;0.80;;;;;;;13.64;44.03;100552.53;5026517;28;20042;-72
2022/11/09 10:13:43;;;;;;;6.03;1.00;;;;;;;13.57;43.36;100554.66;5028415;28;20033;-71
2022/11/09 10:16:31;;;;;;;6.97;0.30;;;;;;;13.44;43.33;100551.84;5011329;28;20049;-71
2022/11/09 10:19:36;;;;;;;4.75;0.68;;;;;;;13.85;43.03;100540.78;5025012;28;20064;-71
2022/11/09 10:22:16;;;;;;;3.63;0.47;;;;;;;12.83;45.40;100550.03;4998136;28;20156;-70
2022/11/09 10:25:11;;;;;;;10.88;1.10;;;;;;;12.41;44.96;100548.75;5009278;28;20040;-70
2022/11/09 10:27:45;;;;;;;4.82;1.20;;;;;;;12.08;46.43;100560.06;5025263;28;20378;-72
2022/11/09 10:30:14;;;;;;;3.65;1.00;;;;;;;12.25;46.54;100554.81;5025031;28;20514;-70
2022/11/09 10:32:41;;;;;;;4.45;0.70;;;;;;;13.15;44.71;100550.88;5025428;28;20112;-71
2022/11/09 10:35:18;;;;;;;4.72;0.47;;;;;;;13.28;43.83;100564.16;5024654;28;20033;-71
2022/11/09 10:37:51;;;;;;;8.38;1.05;;;;;;;13.13;44.98;100544.03;5026006;28;20069;-72
2022/11/09 10:40:28;;;;;;;10.02;0.57;;;;;;;14.06;43.63;100540.41;5025111;28;20038;-71
2022/11/09 10:43:14;;;;;;;3.75;0.60;;;;;;;12.89;44.46;100560.19;5026617;28;20056;-71
2022/11/09 10:46:06;;;;;;;5.10;0.50;;;;;;;13.62;42.82;100551.75;5026248;28;20045;-70
2022/11/09 10:48:52;;;;;;;2.53;0.50;;;;;;;14.26;42.00;100541.84;5025426;28;20051;-70
2022/11/09 10:51:36;;;;;;;2.13;0.35;;;;;;;14.00;41.96;100553.91;5012428;28;20123;-73
2022/11/09 10:54:31;;;;;;;8.07;1.05;;;;;;;12.81;43.65;100546.66;5025245;28;20068;-70
2022/11/09 10:57:18;;;;;;;4.10;0.70;;;;;;;13.95;42.84;100548.94;5027820;28;20115;-71
2022/11/09 11:00:05;;;;;;;9.20;0.93;;;;;;;13.62;43.51;100551.75;5017774;28;20048;-71
2022/11/09 11:02:51;;;;;;;6.50;1.00;;;;;;;12.54;44.41;100562.91;5025871;28;20311;-71
2022/11/09 11:05:36;;;;;;;2.55;0.60;;;;;;;12.47;46.37;100551.91;5026325;28;20122;-71
2022/11/09 11:08:42;;;;;;;8.57;1.08;;;;;;;12.01;46.76;100556.91;5012728;28;20608;-70
2022/11/09 11:11:28;;;;;;;5.10;1.13;;;;;;;11.96;46.68;100565.94;5026937;28;20059;-71
2022/11/09 11:14:18;;;;;;;7.57;0.50;;;;;;;12.57;45.87;100564.53;5018781;28;20110;-71
2022/11/09 11:17:02;;;;;;;7.85;0.47;;;;;;;12.32;45.96;100570.22;5027706;28;20467;-71
2022/11/09 11:19:47;;;;;;;6.47;0.52;;;;;;;11.88;46.72;100566.31;5025300;28;20158;-70
2022/11/09 11:22:30;;;;;;;8.77;1.10;;;;;;;11.41;47.50;100572.09;5025278;28;20068;-72
2022/11/09 11:25:20;;;;;;;7.55;0.60;;;;;;;11.28;47.88;100566.59;5024278;28;20075;-72
2022/11/09 11:28:20;;;;;;;5.75;0.70;;;;;;;11.50;47.64;100576.03;5027809;28;20202;-72
2022/11/09 11:31:12;;;;;;;2.50;0.35;;;;;;;12.13;46.23;100571.16;5028116;28;20524;-71
2022/11/09 11:33:57;;;;;;;6.43;0.93;;;;;;;12.53;45.97;100570.84;5021671;28;20055;-73
2022/11/09 11:36:53;;;;;;;4.07;0.80;;;;;;;11.65;47.15;100564.81;5027922;28;20532;-73
2022/11/09 11:40:01;;;;;;;10.07;0.70;;;;;;;12.01;46.45;100577.03;5022264;28;20163;-70
2022/11/09 11:42:56;;;;;;;5.93;1.17;;;;;;;12.23;46.77;100564.53;5024266;28;20223;-71